createdAt,value
2023-03-17T00:01:51.510Z,10.30
2023-03-17T00:04:19.567Z,10.30
2023-03-17T00:06:47.492Z,10.20
2023-03-17T00:09:16.997Z,10.20
2023-03-17T00:11:45.121Z,10.30
2023-03-17T00:14:12.082Z,10.20
2023-03-17T00:16:42.935Z,10.10
2023-03-17T00:19:24.252Z,10.00
2023-03-17T00:21:50.917Z,10.10
2023-03-17T00:24:17.570Z,10.10
2023-03-17T00:26:44.245Z,10.10
2023-03-17T00:29:10.909Z,10.00
2023-03-17T00:31:39.211Z,10.00
2023-03-17T00:34:07.395Z,10.00
2023-03-17T00:36:34.402Z,10.00
2023-03-17T00:39:01.478Z,10.10
2023-03-17T00:41:29.450Z,10.00
2023-03-17T00:43:57.190Z,9.90
2023-03-17T00:46:35.482Z,9.90
2023-03-17T00:49:09.674Z,10.00
2023-03-17T00:51:36.267Z,9.90
2023-03-17T00:54:02.856Z,9.90
2023-03-17T00:56:29.576Z,9.90
2023-03-17T00:58:56.680Z,9.90
2023-03-17T01:01:23.371Z,9.90
2023-03-17T01:03:50.118Z,10.00
2023-03-17T01:06:17.549Z,10.00
2023-03-17T01:08:44.831Z,10.00
2023-03-17T01:11:20.351Z,9.90
2023-03-17T01:13:47.155Z,9.90
2023-03-17T01:16:15.414Z,9.90
2023-03-17T01:18:42.421Z,10.00
2023-03-17T01:21:09.465Z,10.00
2023-03-17T01:23:36.558Z,9.90
2023-03-17T01:26:03.547Z,9.90
2023-03-17T01:28:30.218Z,9.90
2023-03-17T01:30:56.835Z,9.90
2023-03-17T01:33:23.561Z,10.00
2023-03-17T01:35:51.073Z,9.90
2023-03-17T01:38:18.806Z,9.90
2023-03-17T01:40:50.947Z,9.90
2023-03-17T01:43:24.395Z,9.90
2023-03-17T01:46:21.926Z,9.80
2023-03-17T01:49:12.749Z,9.80
2023-03-17T01:51:57.460Z,9.90
2023-03-17T01:54:30.670Z,9.90
2023-03-17T01:57:03.743Z,9.90
2023-03-17T01:59:34.748Z,9.90
2023-03-17T02:02:05.872Z,9.80
2023-03-17T02:04:34.173Z,9.80
2023-03-17T02:07:03.687Z,9.80
2023-03-17T02:09:31.572Z,9.80
2023-03-17T02:12:01.453Z,9.80
2023-03-17T02:14:28.616Z,9.60
2023-03-17T02:16:55.478Z,9.60
2023-03-17T02:19:22.212Z,9.60
2023-03-17T02:21:58.017Z,9.70
2023-03-17T02:24:40.580Z,9.70
2023-03-17T02:27:13.609Z,9.70
2023-03-17T02:29:41.510Z,9.70
2023-03-17T02:32:09.901Z,9.70
2023-03-17T02:34:37.294Z,9.70
2023-03-17T02:37:04.869Z,9.70
2023-03-17T02:39:32.056Z,9.70
2023-03-17T02:41:58.870Z,9.70
2023-03-17T02:44:25.872Z,9.60
2023-03-17T02:46:52.529Z,9.60
2023-03-17T02:49:19.522Z,9.60
2023-03-17T02:51:46.331Z,9.60
2023-03-17T02:54:13.116Z,9.60
2023-03-17T02:56:39.868Z,9.60
2023-03-17T02:59:07.242Z,9.60
2023-03-17T03:01:34.444Z,9.60
2023-03-17T03:04:01.600Z,9.60
2023-03-17T03:06:28.227Z,9.70
2023-03-17T03:08:54.949Z,9.70
2023-03-17T03:11:21.624Z,9.60
2023-03-17T03:13:48.271Z,9.60
2023-03-17T03:16:16.673Z,9.60
2023-03-17T03:18:43.431Z,9.70
2023-03-17T03:21:10.617Z,9.70
2023-03-17T03:23:37.259Z,9.70
2023-03-17T03:26:04.086Z,9.70
2023-03-17T03:28:31.143Z,9.80
2023-03-17T03:30:57.791Z,9.80
2023-03-17T03:33:24.468Z,9.80
2023-03-17T03:35:51.201Z,9.80
2023-03-17T03:38:17.974Z,9.70
2023-03-17T03:40:45.410Z,9.70
2023-03-17T03:43:22.366Z,9.70
2023-03-17T03:45:50.749Z,9.70
2023-03-17T03:48:17.955Z,9.70
2023-03-17T03:50:45.607Z,9.70
2023-03-17T03:53:12.210Z,9.70
2023-03-17T03:55:38.869Z,9.80
2023-03-17T03:58:06.541Z,9.80
2023-03-17T04:00:33.563Z,9.80
2023-03-17T04:03:01.362Z,9.80
2023-03-17T04:05:28.196Z,9.80
2023-03-17T04:07:55.010Z,9.70
2023-03-17T04:10:23.081Z,9.80
2023-03-17T04:12:49.772Z,9.80
2023-03-17T04:15:18.230Z,9.80
2023-03-17T04:17:45.198Z,9.80
2023-03-17T04:20:14.223Z,9.80
2023-03-17T04:22:42.154Z,9.70
2023-03-17T04:25:10.490Z,9.70
2023-03-17T04:27:37.616Z,9.80
2023-03-17T04:30:05.422Z,9.70
2023-03-17T04:32:32.182Z,9.70
2023-03-17T04:34:59.070Z,9.70
2023-03-17T04:37:26.201Z,9.70
2023-03-17T04:39:53.149Z,9.70
2023-03-17T04:42:19.834Z,9.70
2023-03-17T04:44:46.520Z,9.70
2023-03-17T04:47:13.202Z,9.70
2023-03-17T04:49:40.055Z,9.70
2023-03-17T04:52:06.789Z,9.70
2023-03-17T04:54:33.526Z,9.70
2023-03-17T04:57:00.680Z,9.70
2023-03-17T04:59:27.363Z,9.80
2023-03-17T05:01:54.078Z,9.80
2023-03-17T05:04:31.229Z,9.70
2023-03-17T05:06:59.131Z,9.70
2023-03-17T05:09:28.407Z,9.70
2023-03-17T05:11:55.693Z,9.70
2023-03-17T05:14:22.508Z,9.70
2023-03-17T05:16:49.934Z,9.70
2023-03-17T05:19:17.356Z,9.70
2023-03-17T05:21:44.594Z,9.80
2023-03-17T05:24:11.625Z,9.70
2023-03-17T05:26:39.194Z,9.70
2023-03-17T05:29:06.206Z,9.80
2023-03-17T05:31:33.126Z,9.80
2023-03-17T05:33:59.739Z,9.80
2023-03-17T05:36:26.332Z,9.70
2023-03-17T05:38:53.022Z,9.70
2023-03-17T05:41:20.111Z,9.80
2023-03-17T05:43:46.971Z,9.80
2023-03-17T05:46:13.739Z,9.80
2023-03-17T05:48:40.748Z,9.80
2023-03-17T05:51:07.957Z,9.80
2023-03-17T05:53:36.127Z,9.80
2023-03-17T05:56:03.637Z,9.80
2023-03-17T05:58:30.761Z,9.70
2023-03-17T06:00:58.153Z,9.70
2023-03-17T06:03:24.914Z,9.70
2023-03-17T06:05:51.733Z,9.70
2023-03-17T06:08:19.513Z,9.80
2023-03-17T06:10:47.374Z,9.80
2023-03-17T06:13:14.167Z,9.80
2023-03-17T06:15:42.384Z,9.70
2023-03-17T06:18:09.436Z,9.80
2023-03-17T06:20:36.651Z,9.80
2023-03-17T06:23:05.624Z,9.80
2023-03-17T06:25:34.528Z,9.80
2023-03-17T06:28:03.828Z,9.90
2023-03-17T06:30:33.006Z,10.00
2023-03-17T06:33:00.376Z,10.00
2023-03-17T06:35:27.480Z,10.00
2023-03-17T06:37:54.655Z,10.00
2023-03-17T06:40:21.464Z,10.10
2023-03-17T06:42:48.180Z,10.10
2023-03-17T06:45:15.945Z,10.10
2023-03-17T06:47:42.645Z,10.10
2023-03-17T06:50:11.332Z,10.20
2023-03-17T06:52:39.282Z,10.20
2023-03-17T06:55:07.165Z,10.20
2023-03-17T06:57:33.944Z,10.30
2023-03-17T07:00:00.620Z,10.30
2023-03-17T07:02:27.399Z,10.30
2023-03-17T07:04:54.163Z,10.30
2023-03-17T07:07:21.185Z,10.40
2023-03-17T07:09:48.022Z,10.40
2023-03-17T07:12:14.948Z,10.50
2023-03-17T07:14:41.781Z,10.50
2023-03-17T07:17:12.984Z,10.60
2023-03-17T07:19:40.593Z,10.80
2023-03-17T07:22:09.371Z,10.90
2023-03-17T07:24:36.187Z,10.90
2023-03-17T07:27:02.932Z,11.00
2023-03-17T07:29:29.857Z,10.90
2023-03-17T07:31:57.142Z,10.90
2023-03-17T07:34:24.151Z,11.10
2023-03-17T07:36:51.008Z,11.10
2023-03-17T07:39:17.757Z,11.20
2023-03-17T07:41:44.565Z,11.10
2023-03-17T07:44:11.342Z,11.10
2023-03-17T07:46:38.969Z,11.20
2023-03-17T07:49:06.077Z,11.20
2023-03-17T07:51:32.771Z,11.10
2023-03-17T07:54:04.088Z,11.30
2023-03-17T07:56:32.448Z,11.30
2023-03-17T07:58:59.903Z,11.40
2023-03-17T08:01:27.709Z,11.50
2023-03-17T08:03:55.656Z,11.60
2023-03-17T08:06:25.329Z,11.80
2023-03-17T08:08:53.353Z,11.90
2023-03-17T08:11:20.579Z,12.10
2023-03-17T08:13:47.863Z,12.10
2023-03-17T08:16:14.627Z,12.20
2023-03-17T08:18:41.579Z,12.40
2023-03-17T08:21:08.355Z,12.50
2023-03-17T08:23:35.348Z,12.50
2023-03-17T08:26:03.958Z,12.40
2023-03-17T08:28:31.501Z,12.60
2023-03-17T08:31:17.074Z,12.90
2023-03-17T08:33:47.212Z,13.00
2023-03-17T08:36:14.196Z,13.20
2023-03-17T08:38:42.331Z,13.40
2023-03-17T08:41:12.250Z,13.60
2023-03-17T08:43:40.009Z,13.70
2023-03-17T08:46:18.612Z,13.90
2023-03-17T08:48:46.767Z,14.00
2023-03-17T08:51:13.657Z,14.10
2023-03-17T08:53:41.001Z,14.30
2023-03-17T08:56:08.966Z,14.40
2023-03-17T08:58:37.909Z,14.50
2023-03-17T09:01:05.523Z,14.50
2023-03-17T09:03:33.499Z,14.60
2023-03-17T09:06:00.730Z,14.70
2023-03-17T09:08:27.918Z,14.90
2023-03-17T09:10:54.575Z,15.10
2023-03-17T09:13:22.685Z,15.20
2023-03-17T09:15:51.739Z,15.30
2023-03-17T09:18:21.938Z,15.40
2023-03-17T09:20:48.762Z,15.40
2023-03-17T09:23:15.925Z,15.30
2023-03-17T09:25:42.897Z,15.20
2023-03-17T09:28:12.359Z,15.20
2023-03-17T09:30:42.667Z,15.40
2023-03-17T09:33:11.902Z,15.40
2023-03-17T09:35:40.061Z,15.50
2023-03-17T09:38:08.247Z,15.50
2023-03-17T09:40:46.700Z,15.60
2023-03-17T09:43:22.738Z,15.70
2023-03-17T09:45:49.384Z,15.80
2023-03-17T09:48:39.274Z,16.00
2023-03-17T09:51:08.985Z,16.10
2023-03-17T09:53:49.524Z,16.40
2023-03-17T09:56:19.123Z,16.50
2023-03-17T09:59:07.674Z,16.40
2023-03-17T10:01:34.572Z,16.50
2023-03-17T10:04:02.625Z,16.40
2023-03-17T10:06:44.294Z,16.30
2023-03-17T10:09:26.206Z,16.10
2023-03-17T10:12:17.398Z,15.90
2023-03-17T10:14:54.656Z,16.00
2023-03-17T10:17:28.292Z,16.10
2023-03-17T10:20:01.810Z,16.30
2023-03-17T10:22:38.769Z,16.40
2023-03-17T10:25:20.152Z,16.50
2023-03-17T10:27:54.759Z,16.80
2023-03-17T10:30:23.519Z,16.70
2023-03-17T10:32:52.438Z,16.70
2023-03-17T10:35:19.375Z,16.60
2023-03-17T10:37:49.007Z,16.60
2023-03-17T10:40:25.815Z,16.50
2023-03-17T10:43:00.217Z,16.50
2023-03-17T10:45:30.774Z,16.40
2023-03-17T10:47:59.101Z,16.30
2023-03-17T10:50:39.678Z,16.40
2023-03-17T10:53:20.230Z,16.50
2023-03-17T10:55:50.967Z,16.70
2023-03-17T10:58:21.192Z,16.80
2023-03-17T11:01:17.299Z,16.80
2023-03-17T11:03:44.126Z,16.80
2023-03-17T11:06:19.232Z,16.90
2023-03-17T11:08:49.296Z,16.90
2023-03-17T11:11:26.054Z,17.00
2023-03-17T11:14:11.592Z,16.90
2023-03-17T11:16:45.889Z,16.80
2023-03-17T11:19:16.698Z,16.80
2023-03-17T11:22:05.114Z,16.90
2023-03-17T11:24:36.320Z,16.90
2023-03-17T11:27:26.498Z,16.80
2023-03-17T11:30:16.987Z,16.80
2023-03-17T11:32:50.216Z,16.70
2023-03-17T11:35:36.945Z,16.60
2023-03-17T11:38:12.803Z,16.60
2023-03-17T11:41:01.052Z,16.70
2023-03-17T11:43:47.578Z,16.90
2023-03-17T11:46:43.875Z,17.10
2023-03-17T11:49:28.469Z,17.20
2023-03-17T11:52:10.393Z,17.50
2023-03-17T11:54:59.607Z,17.60
2023-03-17T11:57:46.643Z,17.60
2023-03-17T12:00:36.667Z,17.60
2023-03-17T12:03:23.176Z,17.70
2023-03-17T12:05:54.787Z,17.70
2023-03-17T12:08:37.635Z,17.80
2023-03-17T12:11:10.565Z,17.90
2023-03-17T12:13:43.032Z,18.00
2023-03-17T12:16:19.202Z,18.00
2023-03-17T12:18:53.670Z,18.00
2023-03-17T12:21:20.522Z,18.20
2023-03-17T12:23:52.394Z,18.20
2023-03-17T12:26:31.637Z,18.20
2023-03-17T12:29:21.902Z,18.20
2023-03-17T12:31:55.823Z,18.20
2023-03-17T12:34:51.838Z,18.20
2023-03-17T12:37:19.523Z,18.20
2023-03-17T12:40:05.211Z,18.10
2023-03-17T12:42:58.268Z,18.10
2023-03-17T12:45:46.538Z,18.10
2023-03-17T12:48:53.742Z,18.10
2023-03-17T12:51:39.919Z,18.20
2023-03-17T12:54:27.072Z,18.20
2023-03-17T12:57:05.826Z,18.00
2023-03-17T12:59:34.010Z,17.90
2023-03-17T13:02:30.999Z,17.90
2023-03-17T13:05:02.633Z,17.90
2023-03-17T13:07:47.798Z,17.90
2023-03-17T13:10:19.257Z,17.80
2023-03-17T13:12:48.610Z,17.80
2023-03-17T13:15:37.952Z,17.80
2023-03-17T13:18:16.869Z,17.80
2023-03-17T13:20:47.674Z,17.70
2023-03-17T13:23:22.031Z,17.70
2023-03-17T13:25:53.403Z,17.80
2023-03-17T13:28:34.706Z,17.80
2023-03-17T13:31:20.183Z,17.80
2023-03-17T13:33:53.619Z,17.80
2023-03-17T13:36:36.413Z,17.80
2023-03-17T13:39:24.642Z,17.70
2023-03-17T13:42:18.634Z,17.90
2023-03-17T13:44:57.622Z,17.90
2023-03-17T13:47:31.857Z,17.90
2023-03-17T13:50:16.960Z,17.80
2023-03-17T13:52:49.274Z,17.90
2023-03-17T13:55:19.009Z,17.90
2023-03-17T13:58:11.128Z,17.70
2023-03-17T14:00:41.371Z,17.60
2023-03-17T14:03:33.791Z,17.70
2023-03-17T14:06:05.443Z,17.80
2023-03-17T14:08:32.024Z,17.70
2023-03-17T14:11:01.562Z,17.70
2023-03-17T14:13:35.476Z,17.70
2023-03-17T14:16:13.767Z,17.70
2023-03-17T14:18:44.042Z,17.80
2023-03-17T14:21:40.954Z,17.80
2023-03-17T14:24:33.249Z,17.80
2023-03-17T14:27:07.692Z,17.80
2023-03-17T14:29:34.827Z,17.80
2023-03-17T14:32:07.645Z,17.80
2023-03-17T14:34:34.346Z,17.90
2023-03-17T14:37:03.035Z,18.00
2023-03-17T14:39:29.725Z,18.00
2023-03-17T14:42:04.903Z,18.00
2023-03-17T14:44:42.870Z,18.10
2023-03-17T14:47:22.866Z,18.30
2023-03-17T14:49:51.222Z,18.20
2023-03-17T14:52:21.699Z,18.30
2023-03-17T14:54:53.582Z,18.40
2023-03-17T14:57:26.101Z,18.50
2023-03-17T15:00:19.368Z,18.60
2023-03-17T15:02:56.332Z,18.60
2023-03-17T15:05:40.387Z,18.50
2023-03-17T15:08:34.537Z,18.50
2023-03-17T15:11:04.801Z,18.50
2023-03-17T15:13:35.717Z,18.50
2023-03-17T15:16:17.382Z,18.50
2023-03-17T15:18:44.756Z,18.50
2023-03-17T15:21:23.641Z,18.40
2023-03-17T15:23:50.466Z,18.30
2023-03-17T15:26:22.942Z,18.30
2023-03-17T15:28:49.678Z,18.20
2023-03-17T15:31:16.465Z,18.10
2023-03-17T15:33:43.098Z,18.10
2023-03-17T15:36:25.597Z,18.20
2023-03-17T15:38:58.231Z,18.20
2023-03-17T15:41:24.887Z,18.10
2023-03-17T15:43:51.757Z,18.10
2023-03-17T15:46:27.353Z,18.00
2023-03-17T15:48:54.188Z,18.00
2023-03-17T15:51:21.070Z,17.90
2023-03-17T15:53:47.716Z,17.90
2023-03-17T15:56:21.486Z,17.90
2023-03-17T15:58:51.402Z,17.80
2023-03-17T16:01:19.006Z,17.80
2023-03-17T16:03:47.089Z,17.70
2023-03-17T16:06:17.443Z,17.80
2023-03-17T16:08:45.214Z,17.80
2023-03-17T16:11:28.396Z,17.70
2023-03-17T16:13:57.406Z,17.70
2023-03-17T16:16:36.580Z,17.70
2023-03-17T16:19:05.734Z,17.80
2023-03-17T16:21:32.728Z,17.80
2023-03-17T16:23:59.549Z,17.80
2023-03-17T16:26:26.550Z,17.80
2023-03-17T16:28:53.965Z,17.80
2023-03-17T16:31:31.325Z,17.70
2023-03-17T16:33:58.205Z,17.70
2023-03-17T16:36:25.639Z,17.70
2023-03-17T16:38:52.647Z,17.70
2023-03-17T16:41:22.473Z,17.70
2023-03-17T16:43:57.874Z,17.70
2023-03-17T16:46:27.732Z,17.60
2023-03-17T16:48:56.070Z,17.50
2023-03-17T16:51:24.704Z,17.50
2023-03-17T16:53:51.401Z,17.50
2023-03-17T16:56:21.435Z,17.50
2023-03-17T16:58:49.146Z,17.50
2023-03-17T17:01:20.271Z,17.40
2023-03-17T17:03:47.154Z,17.40
2023-03-17T17:06:14.717Z,17.30
2023-03-17T17:08:42.870Z,17.30
2023-03-17T17:11:12.929Z,17.20
2023-03-17T17:13:44.420Z,17.20
2023-03-17T17:16:28.003Z,17.10
2023-03-17T17:18:55.317Z,17.10
2023-03-17T17:21:22.464Z,17.00
2023-03-17T17:23:50.949Z,17.00
2023-03-17T17:26:19.540Z,16.90
2023-03-17T17:28:46.322Z,16.80
2023-03-17T17:31:13.012Z,16.80
2023-03-17T17:33:39.972Z,16.80
2023-03-17T17:36:12.499Z,16.80
2023-03-17T17:38:39.298Z,16.70
2023-03-17T17:41:06.898Z,16.70
2023-03-17T17:43:33.684Z,16.60
2023-03-17T17:46:00.921Z,16.60
2023-03-17T17:48:28.288Z,16.50
2023-03-17T17:50:56.281Z,16.50
2023-03-17T17:53:22.970Z,16.40
2023-03-17T17:55:52.629Z,16.40
2023-03-17T17:58:22.835Z,16.40
2023-03-17T18:00:50.554Z,16.40
2023-03-17T18:03:22.103Z,16.30
2023-03-17T18:05:48.726Z,16.30
2023-03-17T18:08:15.401Z,16.30
2023-03-17T18:10:42.258Z,16.20
2023-03-17T18:13:09.515Z,16.20
2023-03-17T18:15:36.257Z,16.20
2023-03-17T18:18:02.994Z,16.20
2023-03-17T18:20:30.378Z,16.10
2023-03-17T18:22:57.677Z,16.10
2023-03-17T18:25:27.175Z,16.10
2023-03-17T18:27:54.820Z,16.00
2023-03-17T18:30:25.135Z,16.00
2023-03-17T18:32:55.058Z,15.90
2023-03-17T18:35:24.184Z,15.90
2023-03-17T18:37:51.853Z,15.90
2023-03-17T18:40:19.667Z,15.80
2023-03-17T18:42:46.801Z,15.80
2023-03-17T18:45:13.614Z,15.80
2023-03-17T18:47:41.858Z,15.80
2023-03-17T18:50:10.902Z,15.80
2023-03-17T18:52:40.325Z,15.70
2023-03-17T18:55:08.650Z,15.70
2023-03-17T18:57:35.687Z,15.70
2023-03-17T19:00:02.716Z,15.70
2023-03-17T19:02:29.841Z,15.60
2023-03-17T19:04:56.865Z,15.60
2023-03-17T19:07:23.526Z,15.60
2023-03-17T19:09:50.330Z,15.60
2023-03-17T19:12:17.078Z,15.50
2023-03-17T19:14:43.833Z,15.50
2023-03-17T19:17:10.633Z,15.50
2023-03-17T19:19:37.509Z,15.50
2023-03-17T19:22:06.154Z,15.50
2023-03-17T19:24:35.358Z,15.50
2023-03-17T19:27:02.138Z,15.40
2023-03-17T19:29:28.767Z,15.40
2023-03-17T19:31:55.491Z,15.40
2023-03-17T19:34:23.220Z,15.40
2023-03-17T19:36:51.303Z,15.30
2023-03-17T19:39:18.063Z,15.30
2023-03-17T19:41:47.270Z,15.30
2023-03-17T19:44:14.426Z,15.40
2023-03-17T19:46:41.328Z,15.40
2023-03-17T19:49:08.126Z,15.40
2023-03-17T19:51:34.754Z,15.40
2023-03-17T19:54:01.435Z,15.40
2023-03-17T19:56:28.201Z,15.40
2023-03-17T19:58:55.417Z,15.40
2023-03-17T20:01:22.967Z,15.40
2023-03-17T20:03:49.913Z,15.40
2023-03-17T20:06:16.850Z,15.40
2023-03-17T20:08:44.494Z,15.40
2023-03-17T20:11:12.665Z,15.50
2023-03-17T20:13:40.258Z,15.50
2023-03-17T20:16:08.025Z,15.50
2023-03-17T20:18:35.938Z,15.50
2023-03-17T20:21:05.587Z,15.50
2023-03-17T20:23:33.150Z,15.50
2023-03-17T20:25:59.811Z,15.50
2023-03-17T20:28:28.289Z,15.40
2023-03-17T20:31:00.505Z,15.40
2023-03-17T20:33:27.712Z,15.40
2023-03-17T20:35:54.358Z,15.30
2023-03-17T20:38:21.322Z,15.40
2023-03-17T20:40:48.060Z,15.40
2023-03-17T20:43:14.859Z,15.40
2023-03-17T20:45:41.560Z,15.40
2023-03-17T20:48:10.609Z,15.40
2023-03-17T20:50:38.798Z,15.40
2023-03-17T20:53:05.584Z,15.40
2023-03-17T20:55:32.222Z,15.40
2023-03-17T20:57:59.657Z,15.40
2023-03-17T21:00:26.527Z,15.40
2023-03-17T21:02:53.445Z,15.40
2023-03-17T21:05:25.709Z,15.30
2023-03-17T21:07:52.612Z,15.30
2023-03-17T21:10:20.019Z,15.30
2023-03-17T21:12:46.719Z,15.30
2023-03-17T21:15:14.108Z,15.20
2023-03-17T21:17:42.329Z,15.30
2023-03-17T21:20:13.296Z,15.30
2023-03-17T21:22:40.874Z,15.20
2023-03-17T21:25:10.066Z,15.10
2023-03-17T21:27:38.782Z,15.20
2023-03-17T21:30:08.759Z,15.10
2023-03-17T21:32:36.129Z,15.10
2023-03-17T21:35:03.103Z,15.20
2023-03-17T21:37:29.846Z,15.00
2023-03-17T21:39:56.710Z,15.10
2023-03-17T21:42:24.595Z,15.10
2023-03-17T21:44:55.188Z,15.10
2023-03-17T21:47:21.777Z,15.20
2023-03-17T21:49:48.439Z,15.20
2023-03-17T21:52:15.157Z,15.10
2023-03-17T21:54:42.188Z,15.20
2023-03-17T21:57:09.372Z,15.20
2023-03-17T21:59:36.281Z,15.20
2023-03-17T22:02:03.580Z,15.20
2023-03-17T22:04:30.226Z,15.20
2023-03-17T22:06:58.711Z,15.20
2023-03-17T22:09:25.652Z,15.10
2023-03-17T22:11:52.334Z,15.00
2023-03-17T22:14:20.613Z,14.90
2023-03-17T22:16:48.652Z,14.90
2023-03-17T22:19:16.242Z,14.80
2023-03-17T22:21:43.904Z,14.80
2023-03-17T22:24:11.702Z,14.90
2023-03-17T22:26:38.445Z,14.80
2023-03-17T22:29:05.255Z,14.70
2023-03-17T22:31:32.015Z,14.70
2023-03-17T22:33:59.296Z,14.60
2023-03-17T22:36:26.300Z,14.70
2023-03-17T22:38:53.266Z,14.70
2023-03-17T22:41:23.089Z,14.70
2023-03-17T22:43:50.257Z,14.70
2023-03-17T22:46:17.929Z,14.70
2023-03-17T22:48:46.134Z,14.60
2023-03-17T22:51:16.894Z,14.70
2023-03-17T22:53:44.271Z,14.70
2023-03-17T22:56:12.185Z,14.70
2023-03-17T22:58:39.624Z,14.70
2023-03-17T23:01:06.552Z,14.70
2023-03-17T23:03:34.150Z,14.60
2023-03-17T23:06:03.452Z,14.60
2023-03-17T23:08:32.126Z,14.50
2023-03-17T23:11:01.005Z,14.60
2023-03-17T23:13:27.804Z,14.60
2023-03-17T23:15:54.547Z,14.60
2023-03-17T23:18:21.462Z,14.60
2023-03-17T23:20:49.590Z,14.50
2023-03-17T23:23:16.738Z,14.50
2023-03-17T23:25:43.919Z,14.50
2023-03-17T23:28:10.677Z,14.40
2023-03-17T23:30:37.728Z,14.40
2023-03-17T23:33:05.005Z,14.40
2023-03-17T23:35:32.239Z,14.30
2023-03-17T23:37:59.507Z,14.20
2023-03-17T23:40:26.337Z,14.20
2023-03-17T23:42:55.004Z,14.20
2023-03-17T23:45:23.134Z,14.20
2023-03-17T23:47:51.448Z,14.10
2023-03-17T23:50:18.778Z,14.10
2023-03-17T23:52:45.401Z,14.10
2023-03-17T23:55:12.578Z,14.10
2023-03-17T23:57:39.373Z,14.00
